sensor_id;sensor_type;location;lat;lon;timestamp;temperature;humidity
11744;DHT22;5929;51.906;7.674;2022-08-19T00:01:55;18.10;99.90
11744;DHT22;5929;51.906;7.674;2022-08-19T00:04:25;18.10;99.90
11744;DHT22;5929;51.906;7.674;2022-08-19T00:06:53;18.10;99.90
11744;DHT22;5929;51.906;7.674;2022-08-19T00:09:23;18.10;99.90
11744;DHT22;5929;51.906;7.674;2022-08-19T00:11:53;18.20;99.90
11744;DHT22;5929;51.906;7.674;2022-08-19T00:14:21;18.10;99.90
11744;DHT22;5929;51.906;7.674;2022-08-19T00:16:49;18.00;99.90
11744;DHT22;5929;51.906;7.674;2022-08-19T00:19:16;18.00;99.90
11744;DHT22;5929;51.906;7.674;2022-08-19T00:21:43;18.00;99.90
11744;DHT22;5929;51.906;7.674;2022-08-19T00:24:12;18.00;99.90
11744;DHT22;5929;51.906;7.674;2022-08-19T00:26:41;18.00;99.90
11744;DHT22;5929;51.906;7.674;2022-08-19T00:29:11;17.90;99.90
11744;DHT22;5929;51.906;7.674;2022-08-19T00:31:39;17.90;99.90
11744;DHT22;5929;51.906;7.674;2022-08-19T00:34:07;17.90;99.90
11744;DHT22;5929;51.906;7.674;2022-08-19T00:36:34;17.80;99.90
11744;DHT22;5929;51.906;7.674;2022-08-19T00:39:01;17.80;99.90
11744;DHT22;5929;51.906;7.674;2022-08-19T00:41:28;17.70;99.90
11744;DHT22;5929;51.906;7.674;2022-08-19T00:44:00;17.80;99.90
11744;DHT22;5929;51.906;7.674;2022-08-19T00:46:29;17.80;99.90
11744;DHT22;5929;51.906;7.674;2022-08-19T00:48:57;17.70;99.90
11744;DHT22;5929;51.906;7.674;2022-08-19T00:51:26;17.70;99.90
11744;DHT22;5929;51.906;7.674;2022-08-19T00:53:55;17.70;99.90
11744;DHT22;5929;51.906;7.674;2022-08-19T00:56:23;17.70;99.90
11744;DHT22;5929;51.906;7.674;2022-08-19T00:58:52;17.70;99.90
11744;DHT22;5929;51.906;7.674;2022-08-19T01:01:20;17.70;99.90
11744;DHT22;5929;51.906;7.674;2022-08-19T01:03:48;17.70;99.90
11744;DHT22;5929;51.906;7.674;2022-08-19T01:06:15;17.60;99.90
11744;DHT22;5929;51.906;7.674;2022-08-19T01:08:42;17.60;99.90
11744;DHT22;5929;51.906;7.674;2022-08-19T01:11:09;17.60;99.90
11744;DHT22;5929;51.906;7.674;2022-08-19T01:13:36;17.60;99.90
11744;DHT22;5929;51.906;7.674;2022-08-19T01:16:06;17.60;99.90
11744;DHT22;5929;51.906;7.674;2022-08-19T01:18:38;17.60;99.90
11744;DHT22;5929;51.906;7.674;2022-08-19T01:21:12;17.50;99.90
11744;DHT22;5929;51.906;7.674;2022-08-19T01:23:44;17.40;99.90
11744;DHT22;5929;51.906;7.674;2022-08-19T01:26:17;17.40;99.90
11744;DHT22;5929;51.906;7.674;2022-08-19T01:28:45;17.40;99.90
11744;DHT22;5929;51.906;7.674;2022-08-19T01:31:15;17.40;99.90
11744;DHT22;5929;51.906;7.674;2022-08-19T01:33:43;17.40;99.90
11744;DHT22;5929;51.906;7.674;2022-08-19T01:36:14;17.30;99.90
11744;DHT22;5929;51.906;7.674;2022-08-19T01:38:45;17.40;99.90
11744;DHT22;5929;51.906;7.674;2022-08-19T01:41:12;17.40;99.90
11744;DHT22;5929;51.906;7.674;2022-08-19T01:43:39;17.40;99.90
11744;DHT22;5929;51.906;7.674;2022-08-19T01:46:06;17.30;99.90
11744;DHT22;5929;51.906;7.674;2022-08-19T01:48:38;17.20;99.90
11744;DHT22;5929;51.906;7.674;2022-08-19T01:51:06;17.20;99.90
11744;DHT22;5929;51.906;7.674;2022-08-19T01:53:34;17.30;99.90
11744;DHT22;5929;51.906;7.674;2022-08-19T01:56:05;17.30;99.90
11744;DHT22;5929;51.906;7.674;2022-08-19T01:58:37;17.20;99.90
11744;DHT22;5929;51.906;7.674;2022-08-19T02:01:06;17.10;99.90
11744;DHT22;5929;51.906;7.674;2022-08-19T02:03:33;17.10;99.90
11744;DHT22;5929;51.906;7.674;2022-08-19T02:06:01;17.10;99.90
11744;DHT22;5929;51.906;7.674;2022-08-19T02:08:32;17.10;99.90
11744;DHT22;5929;51.906;7.674;2022-08-19T02:10:59;17.10;99.90
11744;DHT22;5929;51.906;7.674;2022-08-19T02:13:27;17.00;99.90
11744;DHT22;5929;51.906;7.674;2022-08-19T02:15:54;17.00;99.90
11744;DHT22;5929;51.906;7.674;2022-08-19T02:18:21;16.90;99.90
11744;DHT22;5929;51.906;7.674;2022-08-19T02:20:50;16.90;99.90
11744;DHT22;5929;51.906;7.674;2022-08-19T02:23:20;16.90;99.90
11744;DHT22;5929;51.906;7.674;2022-08-19T02:25:48;17.00;99.90
11744;DHT22;5929;51.906;7.674;2022-08-19T02:28:15;17.00;99.90
11744;DHT22;5929;51.906;7.674;2022-08-19T02:30:43;17.10;99.90
11744;DHT22;5929;51.906;7.674;2022-08-19T02:33:10;17.10;99.90
11744;DHT22;5929;51.906;7.674;2022-08-19T02:35:41;17.00;99.90
11744;DHT22;5929;51.906;7.674;2022-08-19T02:38:08;17.00;99.90
11744;DHT22;5929;51.906;7.674;2022-08-19T02:40:55;16.90;99.90
11744;DHT22;5929;51.906;7.674;2022-08-19T02:43:23;17.00;99.90
11744;DHT22;5929;51.906;7.674;2022-08-19T02:45:53;17.00;99.90
11744;DHT22;5929;51.906;7.674;2022-08-19T02:48:21;16.90;99.90
11744;DHT22;5929;51.906;7.674;2022-08-19T02:50:50;16.90;99.90
11744;DHT22;5929;51.906;7.674;2022-08-19T02:53:21;16.90;99.90
11744;DHT22;5929;51.906;7.674;2022-08-19T02:55:49;16.90;99.90
11744;DHT22;5929;51.906;7.674;2022-08-19T02:58:17;16.90;99.90
11744;DHT22;5929;51.906;7.674;2022-08-19T03:00:45;16.90;99.90
11744;DHT22;5929;51.906;7.674;2022-08-19T03:03:14;16.90;99.90
11744;DHT22;5929;51.906;7.674;2022-08-19T03:05:41;16.90;99.90
11744;DHT22;5929;51.906;7.674;2022-08-19T03:08:12;16.90;99.90
11744;DHT22;5929;51.906;7.674;2022-08-19T03:10:41;16.90;99.90
11744;DHT22;5929;51.906;7.674;2022-08-19T03:13:10;16.90;99.90
11744;DHT22;5929;51.906;7.674;2022-08-19T03:15:51;17.00;99.90
11744;DHT22;5929;51.906;7.674;2022-08-19T03:18:20;17.10;99.90
11744;DHT22;5929;51.906;7.674;2022-08-19T03:21:00;17.20;99.90
11744;DHT22;5929;51.906;7.674;2022-08-19T03:23:27;17.10;99.90
11744;DHT22;5929;51.906;7.674;2022-08-19T03:25:59;17.10;99.90
11744;DHT22;5929;51.906;7.674;2022-08-19T03:28:30;17.20;99.90
11744;DHT22;5929;51.906;7.674;2022-08-19T03:31:00;17.40;99.90
11744;DHT22;5929;51.906;7.674;2022-08-19T03:33:30;17.40;99.90
11744;DHT22;5929;51.906;7.674;2022-08-19T03:36:03;17.40;99.90
11744;DHT22;5929;51.906;7.674;2022-08-19T03:38:31;17.50;99.90
11744;DHT22;5929;51.906;7.674;2022-08-19T03:40:57;17.40;99.90
11744;DHT22;5929;51.906;7.674;2022-08-19T03:43:25;17.30;99.90
11744;DHT22;5929;51.906;7.674;2022-08-19T03:46:00;17.20;99.90
11744;DHT22;5929;51.906;7.674;2022-08-19T03:48:32;17.00;99.90
11744;DHT22;5929;51.906;7.674;2022-08-19T03:51:00;17.00;99.90
11744;DHT22;5929;51.906;7.674;2022-08-19T03:53:28;17.00;99.90
11744;DHT22;5929;51.906;7.674;2022-08-19T03:55:57;17.00;99.90
11744;DHT22;5929;51.906;7.674;2022-08-19T03:58:25;16.90;99.90
11744;DHT22;5929;51.906;7.674;2022-08-19T04:00:53;16.90;99.90
11744;DHT22;5929;51.906;7.674;2022-08-19T04:03:20;16.80;99.90
11744;DHT22;5929;51.906;7.674;2022-08-19T04:05:48;16.80;99.90
11744;DHT22;5929;51.906;7.674;2022-08-19T04:08:15;16.80;99.90
11744;DHT22;5929;51.906;7.674;2022-08-19T04:10:48;16.70;99.90
11744;DHT22;5929;51.906;7.674;2022-08-19T04:13:16;16.60;99.90
11744;DHT22;5929;51.906;7.674;2022-08-19T04:15:46;16.60;99.90
11744;DHT22;5929;51.906;7.674;2022-08-19T04:18:13;16.60;99.90
11744;DHT22;5929;51.906;7.674;2022-08-19T04:20:41;16.50;99.90
11744;DHT22;5929;51.906;7.674;2022-08-19T04:23:12;16.50;99.90
11744;DHT22;5929;51.906;7.674;2022-08-19T04:25:41;16.50;99.90
11744;DHT22;5929;51.906;7.674;2022-08-19T04:28:10;16.50;99.90
11744;DHT22;5929;51.906;7.674;2022-08-19T04:30:39;16.60;99.90
11744;DHT22;5929;51.906;7.674;2022-08-19T04:33:06;16.60;99.90
11744;DHT22;5929;51.906;7.674;2022-08-19T04:35:39;16.60;99.90
11744;DHT22;5929;51.906;7.674;2022-08-19T04:38:07;16.60;99.90
11744;DHT22;5929;51.906;7.674;2022-08-19T04:40:40;16.70;99.90
11744;DHT22;5929;51.906;7.674;2022-08-19T04:43:24;16.70;99.90
11744;DHT22;5929;51.906;7.674;2022-08-19T04:45:51;16.60;99.90
11744;DHT22;5929;51.906;7.674;2022-08-19T04:48:18;16.50;99.90
11744;DHT22;5929;51.906;7.674;2022-08-19T04:50:51;16.50;99.90
11744;DHT22;5929;51.906;7.674;2022-08-19T04:53:22;16.60;99.90
11744;DHT22;5929;51.906;7.674;2022-08-19T04:55:50;16.60;99.90
11744;DHT22;5929;51.906;7.674;2022-08-19T04:58:18;16.60;99.90
11744;DHT22;5929;51.906;7.674;2022-08-19T05:00:45;16.60;99.90
11744;DHT22;5929;51.906;7.674;2022-08-19T05:03:13;16.60;99.90
11744;DHT22;5929;51.906;7.674;2022-08-19T05:05:43;16.60;99.90
11744;DHT22;5929;51.906;7.674;2022-08-19T05:08:12;16.60;99.90
11744;DHT22;5929;51.906;7.674;2022-08-19T05:10:50;16.70;99.90
11744;DHT22;5929;51.906;7.674;2022-08-19T05:13:19;16.70;99.90
11744;DHT22;5929;51.906;7.674;2022-08-19T05:15:53;16.80;99.90
11744;DHT22;5929;51.906;7.674;2022-08-19T05:18:20;16.90;99.90
11744;DHT22;5929;51.906;7.674;2022-08-19T05:21:06;16.90;99.90
11744;DHT22;5929;51.906;7.674;2022-08-19T05:23:51;17.00;99.90
11744;DHT22;5929;51.906;7.674;2022-08-19T05:26:19;17.00;99.90
11744;DHT22;5929;51.906;7.674;2022-08-19T05:28:46;17.10;99.90
11744;DHT22;5929;51.906;7.674;2022-08-19T05:31:13;17.10;99.90
11744;DHT22;5929;51.906;7.674;2022-08-19T05:33:40;17.20;99.90
11744;DHT22;5929;51.906;7.674;2022-08-19T05:36:07;17.20;99.90
11744;DHT22;5929;51.906;7.674;2022-08-19T05:38:36;17.30;99.90
11744;DHT22;5929;51.906;7.674;2022-08-19T05:41:07;17.40;99.90
11744;DHT22;5929;51.906;7.674;2022-08-19T05:43:35;17.50;99.90
11744;DHT22;5929;51.906;7.674;2022-08-19T05:46:03;17.60;99.90
11744;DHT22;5929;51.906;7.674;2022-08-19T05:48:31;17.70;99.90
11744;DHT22;5929;51.906;7.674;2022-08-19T05:51:02;17.90;99.90
11744;DHT22;5929;51.906;7.674;2022-08-19T05:53:29;18.10;99.90
11744;DHT22;5929;51.906;7.674;2022-08-19T05:55:56;18.10;99.90
11744;DHT22;5929;51.906;7.674;2022-08-19T05:58:25;18.20;99.90
11744;DHT22;5929;51.906;7.674;2022-08-19T06:00:54;18.20;99.90
11744;DHT22;5929;51.906;7.674;2022-08-19T06:03:20;18.30;99.90
11744;DHT22;5929;51.906;7.674;2022-08-19T06:05:47;18.40;99.90
11744;DHT22;5929;51.906;7.674;2022-08-19T06:08:14;18.50;99.90
11744;DHT22;5929;51.906;7.674;2022-08-19T06:10:43;18.60;99.90
11744;DHT22;5929;51.906;7.674;2022-08-19T06:13:10;18.70;99.90
11744;DHT22;5929;51.906;7.674;2022-08-19T06:15:37;18.80;99.90
11744;DHT22;5929;51.906;7.674;2022-08-19T06:18:05;18.90;99.90
11744;DHT22;5929;51.906;7.674;2022-08-19T06:20:32;19.00;99.90
11744;DHT22;5929;51.906;7.674;2022-08-19T06:22:59;19.10;99.90
11744;DHT22;5929;51.906;7.674;2022-08-19T06:25:26;19.20;99.90
11744;DHT22;5929;51.906;7.674;2022-08-19T06:27:52;19.20;99.90
11744;DHT22;5929;51.906;7.674;2022-08-19T06:30:20;19.20;99.90
11744;DHT22;5929;51.906;7.674;2022-08-19T06:32:46;19.30;99.90
11744;DHT22;5929;51.906;7.674;2022-08-19T06:35:16;19.30;99.90
11744;DHT22;5929;51.906;7.674;2022-08-19T06:37:43;19.30;99.90
11744;DHT22;5929;51.906;7.674;2022-08-19T06:40:10;19.30;99.90
11744;DHT22;5929;51.906;7.674;2022-08-19T06:42:38;19.30;99.90
11744;DHT22;5929;51.906;7.674;2022-08-19T06:45:06;19.40;99.90
11744;DHT22;5929;51.906;7.674;2022-08-19T06:47:34;19.40;99.90
11744;DHT22;5929;51.906;7.674;2022-08-19T06:50:02;19.40;99.90
11744;DHT22;5929;51.906;7.674;2022-08-19T06:52:32;19.30;99.90
11744;DHT22;5929;51.906;7.674;2022-08-19T06:54:59;19.30;99.90
11744;DHT22;5929;51.906;7.674;2022-08-19T06:57:27;19.30;99.90
11744;DHT22;5929;51.906;7.674;2022-08-19T06:59:58;19.30;99.90
11744;DHT22;5929;51.906;7.674;2022-08-19T07:02:25;19.40;99.90
11744;DHT22;5929;51.906;7.674;2022-08-19T07:04:53;19.50;99.90
11744;DHT22;5929;51.906;7.674;2022-08-19T07:07:22;19.50;99.90
11744;DHT22;5929;51.906;7.674;2022-08-19T07:09:51;19.60;99.90
11744;DHT22;5929;51.906;7.674;2022-08-19T07:12:18;19.70;99.90
11744;DHT22;5929;51.906;7.674;2022-08-19T07:14:45;19.70;99.90
11744;DHT22;5929;51.906;7.674;2022-08-19T07:17:15;19.80;99.90
11744;DHT22;5929;51.906;7.674;2022-08-19T07:19:42;19.90;99.90
11744;DHT22;5929;51.906;7.674;2022-08-19T07:22:09;20.00;99.90
11744;DHT22;5929;51.906;7.674;2022-08-19T07:24:37;20.00;99.90
11744;DHT22;5929;51.906;7.674;2022-08-19T07:27:06;20.00;99.90
11744;DHT22;5929;51.906;7.674;2022-08-19T07:29:35;20.10;99.90
11744;DHT22;5929;51.906;7.674;2022-08-19T07:32:04;20.10;99.90
11744;DHT22;5929;51.906;7.674;2022-08-19T07:34:33;20.10;99.90
11744;DHT22;5929;51.906;7.674;2022-08-19T07:37:03;20.20;99.90
11744;DHT22;5929;51.906;7.674;2022-08-19T07:39:32;20.20;99.90
11744;DHT22;5929;51.906;7.674;2022-08-19T07:42:01;20.30;99.90
11744;DHT22;5929;51.906;7.674;2022-08-19T07:44:29;20.30;99.90
11744;DHT22;5929;51.906;7.674;2022-08-19T07:46:57;20.40;99.90
11744;DHT22;5929;51.906;7.674;2022-08-19T07:49:25;20.40;99.90
11744;DHT22;5929;51.906;7.674;2022-08-19T07:51:54;20.50;99.90
11744;DHT22;5929;51.906;7.674;2022-08-19T07:54:25;20.60;99.90
11744;DHT22;5929;51.906;7.674;2022-08-19T07:56:52;20.70;99.90
11744;DHT22;5929;51.906;7.674;2022-08-19T07:59:20;20.70;99.90
11744;DHT22;5929;51.906;7.674;2022-08-19T08:01:48;20.70;99.90
11744;DHT22;5929;51.906;7.674;2022-08-19T08:04:17;20.80;99.90
11744;DHT22;5929;51.906;7.674;2022-08-19T08:07:01;20.90;99.90
11744;DHT22;5929;51.906;7.674;2022-08-19T08:09:46;21.10;99.90
11744;DHT22;5929;51.906;7.674;2022-08-19T08:12:15;21.10;99.90
11744;DHT22;5929;51.906;7.674;2022-08-19T08:14:44;21.20;99.90
11744;DHT22;5929;51.906;7.674;2022-08-19T08:17:14;21.20;99.90
11744;DHT22;5929;51.906;7.674;2022-08-19T08:19:42;21.30;99.90
11744;DHT22;5929;51.906;7.674;2022-08-19T08:22:10;21.40;99.90
11744;DHT22;5929;51.906;7.674;2022-08-19T08:25:01;21.40;99.90
11744;DHT22;5929;51.906;7.674;2022-08-19T08:27:28;21.50;99.90
11744;DHT22;5929;51.906;7.674;2022-08-19T08:29:57;21.60;99.90
11744;DHT22;5929;51.906;7.674;2022-08-19T08:32:25;21.70;99.90
11744;DHT22;5929;51.906;7.674;2022-08-19T08:34:53;21.80;99.90
11744;DHT22;5929;51.906;7.674;2022-08-19T08:37:22;21.90;99.90
11744;DHT22;5929;51.906;7.674;2022-08-19T08:39:49;21.90;99.90
11744;DHT22;5929;51.906;7.674;2022-08-19T08:42:20;21.90;99.90
11744;DHT22;5929;51.906;7.674;2022-08-19T08:44:55;21.90;99.90
11744;DHT22;5929;51.906;7.674;2022-08-19T08:47:28;22.00;99.90
11744;DHT22;5929;51.906;7.674;2022-08-19T08:50:02;22.00;99.90
11744;DHT22;5929;51.906;7.674;2022-08-19T08:52:31;22.20;99.90
11744;DHT22;5929;51.906;7.674;2022-08-19T08:55:05;22.30;99.90
11744;DHT22;5929;51.906;7.674;2022-08-19T08:57:36;22.30;99.90
11744;DHT22;5929;51.906;7.674;2022-08-19T09:00:08;22.40;99.90
11744;DHT22;5929;51.906;7.674;2022-08-19T09:02:38;22.50;99.90
11744;DHT22;5929;51.906;7.674;2022-08-19T09:05:06;22.50;99.90
11744;DHT22;5929;51.906;7.674;2022-08-19T09:07:41;22.40;99.90
11744;DHT22;5929;51.906;7.674;2022-08-19T09:10:17;22.40;99.90
11744;DHT22;5929;51.906;7.674;2022-08-19T09:12:55;22.40;99.90
11744;DHT22;5929;51.906;7.674;2022-08-19T09:15:29;22.40;99.90
11744;DHT22;5929;51.906;7.674;2022-08-19T09:18:01;22.40;99.90
11744;DHT22;5929;51.906;7.674;2022-08-19T09:20:29;22.50;99.90
11744;DHT22;5929;51.906;7.674;2022-08-19T09:22:56;22.60;99.90
11744;DHT22;5929;51.906;7.674;2022-08-19T09:25:24;22.80;99.90
11744;DHT22;5929;51.906;7.674;2022-08-19T09:27:52;22.90;99.90
11744;DHT22;5929;51.906;7.674;2022-08-19T09:30:24;23.10;99.90
11744;DHT22;5929;51.906;7.674;2022-08-19T09:32:52;23.30;99.90
11744;DHT22;5929;51.906;7.674;2022-08-19T09:35:22;23.50;99.90
11744;DHT22;5929;51.906;7.674;2022-08-19T09:37:49;23.50;99.90
11744;DHT22;5929;51.906;7.674;2022-08-19T09:40:17;23.60;99.90
11744;DHT22;5929;51.906;7.674;2022-08-19T09:42:44;23.40;99.90
11744;DHT22;5929;51.906;7.674;2022-08-19T09:45:14;23.30;99.90
11744;DHT22;5929;51.906;7.674;2022-08-19T09:47:42;23.30;99.90
11744;DHT22;5929;51.906;7.674;2022-08-19T09:50:12;23.20;99.90
11744;DHT22;5929;51.906;7.674;2022-08-19T09:52:40;23.20;99.90
11744;DHT22;5929;51.906;7.674;2022-08-19T09:55:09;23.20;99.90
11744;DHT22;5929;51.906;7.674;2022-08-19T09:57:37;23.20;99.90
11744;DHT22;5929;51.906;7.674;2022-08-19T10:00:06;23.40;99.90
11744;DHT22;5929;51.906;7.674;2022-08-19T10:02:34;23.60;99.90
11744;DHT22;5929;51.906;7.674;2022-08-19T10:05:01;23.70;99.90
11744;DHT22;5929;51.906;7.674;2022-08-19T10:07:49;23.70;99.00
11744;DHT22;5929;51.906;7.674;2022-08-19T10:10:16;23.90;98.50
11744;DHT22;5929;51.906;7.674;2022-08-19T10:12:43;24.00;98.60
11744;DHT22;5929;51.906;7.674;2022-08-19T10:15:13;24.10;97.80
11744;DHT22;5929;51.906;7.674;2022-08-19T10:17:40;24.20;97.70
11744;DHT22;5929;51.906;7.674;2022-08-19T10:20:08;24.40;97.80
11744;DHT22;5929;51.906;7.674;2022-08-19T10:22:37;24.70;97.00
11744;DHT22;5929;51.906;7.674;2022-08-19T10:25:07;25.00;96.40
11744;DHT22;5929;51.906;7.674;2022-08-19T10:27:34;25.30;96.30
11744;DHT22;5929;51.906;7.674;2022-08-19T10:30:04;25.20;95.20
11744;DHT22;5929;51.906;7.674;2022-08-19T10:32:31;25.30;95.20
11744;DHT22;5929;51.906;7.674;2022-08-19T10:34:59;25.20;94.60
11744;DHT22;5929;51.906;7.674;2022-08-19T10:37:26;25.30;94.60
11744;DHT22;5929;51.906;7.674;2022-08-19T10:39:53;25.20;94.20
11744;DHT22;5929;51.906;7.674;2022-08-19T10:42:21;25.20;94.20
11744;DHT22;5929;51.906;7.674;2022-08-19T10:44:50;25.20;93.70
11744;DHT22;5929;51.906;7.674;2022-08-19T10:47:17;25.10;93.80
11744;DHT22;5929;51.906;7.674;2022-08-19T10:49:48;24.90;93.80
11744;DHT22;5929;51.906;7.674;2022-08-19T10:52:33;24.90;93.90
11744;DHT22;5929;51.906;7.674;2022-08-19T10:55:00;25.00;93.70
11744;DHT22;5929;51.906;7.674;2022-08-19T10:57:46;25.20;94.00
11744;DHT22;5929;51.906;7.674;2022-08-19T11:00:13;25.70;94.10
11744;DHT22;5929;51.906;7.674;2022-08-19T11:02:40;25.60;92.70
11744;DHT22;5929;51.906;7.674;2022-08-19T11:05:08;25.90;91.30
11744;DHT22;5929;51.906;7.674;2022-08-19T11:07:36;26.30;90.70
11744;DHT22;5929;51.906;7.674;2022-08-19T11:10:05;26.60;87.60
11744;DHT22;5929;51.906;7.674;2022-08-19T11:12:32;26.70;87.00
11744;DHT22;5929;51.906;7.674;2022-08-19T11:15:01;27.00;87.60
11744;DHT22;5929;51.906;7.674;2022-08-19T11:17:27;27.30;84.90
11744;DHT22;5929;51.906;7.674;2022-08-19T11:19:59;27.20;82.40
11744;DHT22;5929;51.906;7.674;2022-08-19T11:22:29;27.50;80.80
11744;DHT22;5929;51.906;7.674;2022-08-19T11:24:56;28.00;78.70
11744;DHT22;5929;51.906;7.674;2022-08-19T11:27:23;28.10;76.90
11744;DHT22;5929;51.906;7.674;2022-08-19T11:29:50;28.40;73.40
11744;DHT22;5929;51.906;7.674;2022-08-19T11:32:19;28.60;73.80
11744;DHT22;5929;51.906;7.674;2022-08-19T11:34:46;29.00;74.10
11744;DHT22;5929;51.906;7.674;2022-08-19T11:37:13;29.50;71.70
11744;DHT22;5929;51.906;7.674;2022-08-19T11:39:41;29.80;72.10
11744;DHT22;5929;51.906;7.674;2022-08-19T11:42:08;29.30;73.50
11744;DHT22;5929;51.906;7.674;2022-08-19T11:44:49;29.30;72.50
11744;DHT22;5929;51.906;7.674;2022-08-19T11:47:15;29.10;73.20
11744;DHT22;5929;51.906;7.674;2022-08-19T11:49:44;28.60;74.40
11744;DHT22;5929;51.906;7.674;2022-08-19T11:52:11;28.70;73.40
11744;DHT22;5929;51.906;7.674;2022-08-19T11:54:38;29.20;75.40
11744;DHT22;5929;51.906;7.674;2022-08-19T11:57:05;29.60;70.70
11744;DHT22;5929;51.906;7.674;2022-08-19T11:59:32;29.30;70.90
11744;DHT22;5929;51.906;7.674;2022-08-19T12:01:59;28.60;72.30
11744;DHT22;5929;51.906;7.674;2022-08-19T12:04:26;27.80;76.00
11744;DHT22;5929;51.906;7.674;2022-08-19T12:06:54;27.40;77.30
11744;DHT22;5929;51.906;7.674;2022-08-19T12:09:23;27.00;78.60
11744;DHT22;5929;51.906;7.674;2022-08-19T12:11:50;27.70;77.20
11744;DHT22;5929;51.906;7.674;2022-08-19T12:14:17;27.80;75.90
11744;DHT22;5929;51.906;7.674;2022-08-19T12:16:45;28.00;75.80
11744;DHT22;5929;51.906;7.674;2022-08-19T12:19:12;27.70;77.30
11744;DHT22;5929;51.906;7.674;2022-08-19T12:21:39;27.30;78.30
11744;DHT22;5929;51.906;7.674;2022-08-19T12:24:07;27.00;79.20
11744;DHT22;5929;51.906;7.674;2022-08-19T12:26:34;26.80;79.90
11744;DHT22;5929;51.906;7.674;2022-08-19T12:29:02;26.90;79.90
11744;DHT22;5929;51.906;7.674;2022-08-19T12:31:29;27.50;78.00
11744;DHT22;5929;51.906;7.674;2022-08-19T12:33:56;27.70;77.70
11744;DHT22;5929;51.906;7.674;2022-08-19T12:36:24;27.90;77.70
11744;DHT22;5929;51.906;7.674;2022-08-19T12:38:53;27.70;77.60
11744;DHT22;5929;51.906;7.674;2022-08-19T12:41:21;27.60;79.50
11744;DHT22;5929;51.906;7.674;2022-08-19T12:43:49;27.90;77.90
11744;DHT22;5929;51.906;7.674;2022-08-19T12:46:16;28.80;73.60
11744;DHT22;5929;51.906;7.674;2022-08-19T12:48:44;29.40;73.70
11744;DHT22;5929;51.906;7.674;2022-08-19T12:51:12;29.50;71.20
11744;DHT22;5929;51.906;7.674;2022-08-19T12:53:40;29.50;70.20
11744;DHT22;5929;51.906;7.674;2022-08-19T12:56:07;29.70;70.40
11744;DHT22;5929;51.906;7.674;2022-08-19T12:58:36;29.90;69.60
11744;DHT22;5929;51.906;7.674;2022-08-19T13:01:07;29.90;67.90
11744;DHT22;5929;51.906;7.674;2022-08-19T13:03:35;29.70;69.70
11744;DHT22;5929;51.906;7.674;2022-08-19T13:06:02;29.70;68.60
11744;DHT22;5929;51.906;7.674;2022-08-19T13:08:29;30.00;67.60
11744;DHT22;5929;51.906;7.674;2022-08-19T13:10:56;30.40;66.80
11744;DHT22;5929;51.906;7.674;2022-08-19T13:13:23;31.30;66.80
11744;DHT22;5929;51.906;7.674;2022-08-19T13:15:52;31.90;63.50
11744;DHT22;5929;51.906;7.674;2022-08-19T13:18:19;31.30;62.10
11744;DHT22;5929;51.906;7.674;2022-08-19T13:20:46;30.40;63.20
11744;DHT22;5929;51.906;7.674;2022-08-19T13:23:12;29.50;65.80
11744;DHT22;5929;51.906;7.674;2022-08-19T13:25:39;28.80;67.30
11744;DHT22;5929;51.906;7.674;2022-08-19T13:28:06;28.30;68.50
11744;DHT22;5929;51.906;7.674;2022-08-19T13:30:33;28.00;69.10
11744;DHT22;5929;51.906;7.674;2022-08-19T13:33:19;28.20;68.30
11744;DHT22;5929;51.906;7.674;2022-08-19T13:35:49;28.90;65.80
11744;DHT22;5929;51.906;7.674;2022-08-19T13:38:19;29.60;66.00
11744;DHT22;5929;51.906;7.674;2022-08-19T13:40:47;29.80;63.10
11744;DHT22;5929;51.906;7.674;2022-08-19T13:43:16;30.20;62.40
11744;DHT22;5929;51.906;7.674;2022-08-19T13:45:44;30.70;60.00
11744;DHT22;5929;51.906;7.674;2022-08-19T13:48:11;30.80;62.30
11744;DHT22;5929;51.906;7.674;2022-08-19T13:50:42;30.40;62.30
11744;DHT22;5929;51.906;7.674;2022-08-19T13:53:10;30.30;63.10
11744;DHT22;5929;51.906;7.674;2022-08-19T13:55:38;29.50;63.30
11744;DHT22;5929;51.906;7.674;2022-08-19T13:58:05;28.90;64.20
11744;DHT22;5929;51.906;7.674;2022-08-19T14:00:34;28.40;66.70
11744;DHT22;5929;51.906;7.674;2022-08-19T14:03:02;28.20;66.40
11744;DHT22;5929;51.906;7.674;2022-08-19T14:05:31;28.60;68.00
11744;DHT22;5929;51.906;7.674;2022-08-19T14:07:59;29.10;66.90
11744;DHT22;5929;51.906;7.674;2022-08-19T14:10:27;29.70;64.20
11744;DHT22;5929;51.906;7.674;2022-08-19T14:12:57;30.10;62.90
11744;DHT22;5929;51.906;7.674;2022-08-19T14:15:26;30.50;62.60
11744;DHT22;5929;51.906;7.674;2022-08-19T14:17:53;30.80;62.90
11744;DHT22;5929;51.906;7.674;2022-08-19T14:20:20;30.40;61.30
11744;DHT22;5929;51.906;7.674;2022-08-19T14:22:48;29.80;61.90
11744;DHT22;5929;51.906;7.674;2022-08-19T14:25:19;29.50;62.50
11744;DHT22;5929;51.906;7.674;2022-08-19T14:27:47;29.60;63.50
11744;DHT22;5929;51.906;7.674;2022-08-19T14:30:15;29.80;62.60
11744;DHT22;5929;51.906;7.674;2022-08-19T14:32:43;29.70;62.30
11744;DHT22;5929;51.906;7.674;2022-08-19T14:35:11;29.70;64.00
11744;DHT22;5929;51.906;7.674;2022-08-19T14:37:40;30.00;62.60
11744;DHT22;5929;51.906;7.674;2022-08-19T14:40:08;30.20;60.90
11744;DHT22;5929;51.906;7.674;2022-08-19T14:42:37;30.30;60.90
11744;DHT22;5929;51.906;7.674;2022-08-19T14:45:07;29.70;61.70
11744;DHT22;5929;51.906;7.674;2022-08-19T14:47:35;29.00;62.60
11744;DHT22;5929;51.906;7.674;2022-08-19T14:50:04;28.60;64.40
11744;DHT22;5929;51.906;7.674;2022-08-19T14:52:32;28.30;64.80
11744;DHT22;5929;51.906;7.674;2022-08-19T14:54:58;28.20;65.70
11744;DHT22;5929;51.906;7.674;2022-08-19T14:57:25;28.10;64.90
11744;DHT22;5929;51.906;7.674;2022-08-19T14:59:54;28.00;65.30
11744;DHT22;5929;51.906;7.674;2022-08-19T15:02:22;28.00;65.60
11744;DHT22;5929;51.906;7.674;2022-08-19T15:04:49;27.90;66.40
11744;DHT22;5929;51.906;7.674;2022-08-19T15:07:17;27.90;65.50
11744;DHT22;5929;51.906;7.674;2022-08-19T15:09:44;27.80;65.80
11744;DHT22;5929;51.906;7.674;2022-08-19T15:12:10;27.90;65.80
11744;DHT22;5929;51.906;7.674;2022-08-19T15:14:37;27.70;66.00
11744;DHT22;5929;51.906;7.674;2022-08-19T15:17:06;27.70;66.50
11744;DHT22;5929;51.906;7.674;2022-08-19T15:19:33;27.60;66.70
11744;DHT22;5929;51.906;7.674;2022-08-19T15:22:01;27.50;67.60
11744;DHT22;5929;51.906;7.674;2022-08-19T15:24:28;27.60;67.10
11744;DHT22;5929;51.906;7.674;2022-08-19T15:26:55;27.60;67.20
11744;DHT22;5929;51.906;7.674;2022-08-19T15:29:22;27.50;67.20
11744;DHT22;5929;51.906;7.674;2022-08-19T15:31:50;27.60;67.60
11744;DHT22;5929;51.906;7.674;2022-08-19T15:34:20;27.60;68.70
11744;DHT22;5929;51.906;7.674;2022-08-19T15:36:47;27.40;70.30
11744;DHT22;5929;51.906;7.674;2022-08-19T15:39:14;27.40;67.80
11744;DHT22;5929;51.906;7.674;2022-08-19T15:41:41;27.40;68.00
11744;DHT22;5929;51.906;7.674;2022-08-19T15:44:10;27.40;67.60
11744;DHT22;5929;51.906;7.674;2022-08-19T15:46:39;27.20;70.70
11744;DHT22;5929;51.906;7.674;2022-08-19T15:49:07;27.10;68.60
11744;DHT22;5929;51.906;7.674;2022-08-19T15:51:36;27.20;67.60
11744;DHT22;5929;51.906;7.674;2022-08-19T15:54:06;27.10;67.90
11744;DHT22;5929;51.906;7.674;2022-08-19T15:56:33;27.00;69.30